Terminal Aerodrome Forecast
Issued by NWS Lake Charles, LA

Home | Current Version | Previous Version | Text Only | Print | Product List | Glossary On
Versions: 1 2 3 4 5 6 7 8 9 10 11 12 13 14 15 16 17 18
000
FTUS44 KLCH 251500 AAA
TAFARA
TAF AMD
KARA 251508Z 2515/2612 22010KT P6SM SCT250
     FM251800 23014G21KT P6SM SCT250
     FM260400 31009KT P6SM SCT250=

USA.gov is the U.S. government's official web portal to all federal, state and local government web resources and services.